Ana Sayfa
METAR-TAF:

METAR-TAF

Havaalanları :

Diyarbakır Havalimanı

Diyarbakır, Türkiye

Enlem: 37-53N, Boylam: 040-11E, yükseklik: 686 m

Güncel hava durumu gözlemi

Rapor saat 18:20 UTC de 47 dakika önce yapıldı.
Rüzgar kuzey/kuzeybatıdan 3 kt, batı/güneybatı ve kuzey arasında değişken
Sıcaklık 21°C
Nem 38%
Basınç 1018 hPa
Görüş mesafesi 10 km veya daha fazla
1500 m altında bulut yok ve kümülonimbus yok

METAR: LTCC 161820Z 34003KT 250V350 CAVOK 21/06 Q1018 NOSIG RMK RWY16 VRB02KT

Saat: 22:07 (19:07 UTC)

Tahmin

Rapor saat 16:40 UTC de 2 saat ve 27 dakika önce yapıldı.
Ayın 16'si saat 18 UTC'den ayın 17'si saat 18 UTC'ye kadar geçerli Tahmin
Rüzgar değişken yönden 2 kt
Görüş mesafesi 10 km veya daha fazla
1500 m altında bulut yok ve kümülonimbus yok

TAF: LTCC 161640Z 1618/1718 VRB02KT CAVOK

4.000'den fazla havaalanı için hava durumu gözlemleri ve tahminleri (METAR ve TAF raporları).

Kullanılabilir istasyonlar harita üzerinde sarı ve kırmızı noktalarla gösterilir.

İstasyonun adını görmek için fareyi noktanın üzerinde gezdirin.

Sonrasında hava gözlem ve tahminlerini görmek için tıklayın.

Haritayı değiştirmek için: yaklaştırmak için siyah artı işaretli yeşil düğmeye ve uzaklaştırmak için de eksi işaretli düğmeye hızla tıklayın; bitişik haritalar için yeşil okları kullanın.


METAR-TAF: